Time;durP1;ratioP1;P1;durP2;ratioP2;P2;SDS_P1;SDS_P2;PMS_P1;PMS_P2;Temp;Humidity;BMP_temperature;BMP_pressure;BME280_temperature;BME280_humidity;BME280_pressure;Samples;Min_cycle;Max_cycle;Signal;HPM_P1;HPM_P2
2022/07/07 00:01:03;;;;;;;8.07;2.42;;;;;;;13.83;100.00;101782.94;5115088;27;20126;-89
2022/07/07 00:03:30;;;;;;;7.93;2.15;;;;;;;13.37;100.00;101744.13;5096638;28;20050;-88
2022/07/07 00:05:57;;;;;;;7.80;2.28;;;;;;;13.77;100.00;101756.81;5106144;27;20051;-89
2022/07/07 00:08:24;;;;;;;9.18;2.00;;;;;;;13.80;100.00;101777.75;5098758;28;20059;-89
2022/07/07 00:10:51;;;;;;;9.27;2.25;;;;;;;13.59;100.00;101774.09;5095148;28;20058;-89
2022/07/07 00:13:18;;;;;;;8.00;1.92;;;;;;;13.70;100.00;101775.50;5093771;28;20048;-88
2022/07/07 00:15:45;;;;;;;9.63;2.35;;;;;;;13.65;100.00;101786.19;5113026;28;20047;-88
2022/07/07 00:18:13;;;;;;;7.93;1.90;;;;;;;13.74;100.00;101798.16;5095271;28;20104;-88
2022/07/07 00:20:40;;;;;;;6.32;1.65;;;;;;;13.76;100.00;101783.22;5095417;28;20066;-88
2022/07/07 00:23:07;;;;;;;8.73;2.08;;;;;;;13.54;100.00;101802.31;5092225;28;20043;-88
2022/07/07 00:25:34;;;;;;;6.82;2.10;;;;;;;13.80;100.00;101806.72;5112907;27;20125;-89
2022/07/07 00:28:01;;;;;;;5.55;1.70;;;;;;;13.66;100.00;101814.22;5114984;28;20055;-88
2022/07/07 00:30:27;;;;;;;8.13;1.92;;;;;;;13.33;100.00;101774.09;5100301;28;20082;-88
2022/07/07 00:32:54;;;;;;;6.97;2.05;;;;;;;13.52;100.00;101792.78;5100929;28;20054;-89
2022/07/07 00:35:21;;;;;;;8.77;2.55;;;;;;;13.70;100.00;101844.78;5109458;28;20043;-88
2022/07/07 00:37:48;;;;;;;6.28;2.00;;;;;;;13.80;100.00;101843.56;5095147;28;20043;-88
2022/07/07 00:40:14;;;;;;;11.25;2.42;;;;;;;13.44;100.00;101808.81;5093014;28;20053;-88
2022/07/07 00:42:41;;;;;;;7.00;2.28;;;;;;;13.65;100.00;101854.59;5087282;28;20050;-88
2022/07/07 00:45:08;;;;;;;6.43;2.17;;;;;;;13.43;100.00;101807.94;5119814;28;20373;-88
2022/07/07 00:47:36;;;;;;;6.95;2.15;;;;;;;13.63;100.00;101822.22;5115246;28;20049;-88
2022/07/07 00:50:03;;;;;;;8.45;2.25;;;;;;;13.55;100.00;101832.16;5120254;27;20061;-88
2022/07/07 00:52:30;;;;;;;7.60;2.10;;;;;;;13.86;100.00;101840.75;5098986;28;20058;-88
2022/07/07 00:54:59;;;;;;;10.88;2.38;;;;;;;13.72;100.00;101845.59;5099896;27;20049;-88
2022/07/07 00:57:27;;;;;;;10.20;2.63;;;;;;;13.61;100.00;101840.69;5109300;28;20097;-87
2022/07/07 00:59:58;;;;;;;8.98;2.15;;;;;;;13.37;100.00;101854.63;5101226;27;20066;-88
2022/07/07 01:02:29;;;;;;;9.90;2.25;;;;;;;13.50;100.00;101876.16;5106554;28;20057;-87
2022/07/07 01:05:01;;;;;;;7.60;2.50;;;;;;;13.23;100.00;101837.50;5118315;27;20407;-88
2022/07/07 01:07:28;;;;;;;8.45;2.00;;;;;;;13.43;100.00;101884.22;5128078;27;20082;-87
2022/07/07 01:09:57;;;;;;;7.00;2.30;;;;;;;13.17;100.00;101890.25;5097703;28;20066;-88
2022/07/07 01:12:24;;;;;;;7.95;2.13;;;;;;;13.21;100.00;101847.19;5093049;27;20051;-88
2022/07/07 01:14:51;;;;;;;6.60;2.22;;;;;;;13.16;100.00;101859.63;5105267;28;20050;-88
2022/07/07 01:17:19;;;;;;;11.07;2.85;;;;;;;13.25;100.00;101869.84;5104351;27;20047;-88
2022/07/07 01:19:45;;;;;;;10.00;2.15;;;;;;;13.33;100.00;101876.69;5118995;27;20051;-88
2022/07/07 01:22:17;;;;;;;11.35;2.67;;;;;;;13.59;100.00;101899.53;5096603;28;20044;-88
2022/07/07 01:24:43;;;;;;;10.98;2.25;;;;;;;13.08;100.00;101858.97;5109443;27;20047;-88
2022/07/07 01:27:13;;;;;;;7.82;2.25;;;;;;;13.25;100.00;101883.00;5087208;28;20134;-88
2022/07/07 01:29:45;;;;;;;9.52;2.08;;;;;;;13.37;100.00;101886.19;5097848;28;20047;-87
2022/07/07 01:32:12;;;;;;;7.25;2.35;;;;;;;13.13;100.00;101895.66;5092269;28;20048;-87
2022/07/07 01:34:41;;;;;;;9.32;2.20;;;;;;;13.19;100.00;101880.56;5124295;27;20497;-87
2022/07/07 01:37:08;;;;;;;11.75;2.85;;;;;;;13.27;100.00;101886.44;5098083;28;21412;-87
2022/07/07 01:39:36;;;;;;;8.05;2.22;;;;;;;13.31;100.00;101895.13;5098235;28;20397;-88
2022/07/07 01:42:04;;;;;;;11.30;2.25;;;;;;;13.05;100.00;101927.44;5114563;28;20455;-87
2022/07/07 01:44:32;;;;;;;8.23;2.15;;;;;;;13.01;100.00;101907.41;5098072;28;20405;-88
2022/07/07 01:46:59;;;;;;;11.98;2.65;;;;;;;13.26;100.00;101913.66;5097463;28;20044;-88
2022/07/07 01:49:29;;;;;;;9.35;2.25;;;;;;;13.16;100.00;101914.00;5098079;28;20043;-88
2022/07/07 01:51:57;;;;;;;8.98;2.38;;;;;;;13.05;100.00;101956.34;5115097;28;20051;-88
2022/07/07 01:54:24;;;;;;;10.32;2.22;;;;;;;13.11;100.00;101940.41;5097806;28;20071;-88
2022/07/07 01:56:51;;;;;;;10.75;2.33;;;;;;;12.84;100.00;101868.47;5098027;28;20055;-87
2022/07/07 01:59:18;;;;;;;10.43;2.00;;;;;;;13.01;100.00;101889.00;5115434;28;20543;-88
2022/07/07 02:01:45;;;;;;;8.43;2.08;;;;;;;12.80;100.00;101888.72;5096004;28;20051;-87
2022/07/07 02:04:11;;;;;;;7.95;2.10;;;;;;;12.75;100.00;101888.00;5097193;28;20040;-87
2022/07/07 02:06:38;;;;;;;11.95;2.17;;;;;;;12.90;100.00;101891.94;5104341;28;20094;-88
2022/07/07 02:09:06;;;;;;;12.98;2.45;;;;;;;13.22;100.00;101961.13;5096991;28;20048;-87
2022/07/07 02:11:33;;;;;;;8.25;2.10;;;;;;;13.26;100.00;101966.28;5096749;28;20054;-88
2022/07/07 02:14:00;;;;;;;9.98;1.77;;;;;;;12.95;100.00;101947.88;5097291;28;20044;-88
2022/07/07 02:16:27;;;;;;;8.57;1.85;;;;;;;12.70;100.00;101909.13;5097471;28;20119;-87
2022/07/07 02:18:57;;;;;;;16.77;2.40;;;;;;;12.98;100.00;101970.56;5097184;28;20085;-88
2022/07/07 02:21:25;;;;;;;9.30;2.05;;;;;;;12.83;100.00;101940.34;5097300;28;20130;-87
2022/07/07 02:23:53;;;;;;;11.00;2.08;;;;;;;12.65;100.00;101936.44;5097603;28;20051;-87
2022/07/07 02:26:20;;;;;;;8.75;2.05;;;;;;;12.78;100.00;101969.34;5097710;28;20044;-88
2022/07/07 02:28:47;;;;;;;12.30;2.40;;;;;;;13.11;100.00;101969.34;5097456;28;20404;-87
2022/07/07 02:31:14;;;;;;;12.52;2.40;;;;;;;12.82;100.00;101980.66;5115375;28;20047;-88
2022/07/07 02:33:42;;;;;;;13.45;2.28;;;;;;;13.07;100.00;101980.84;5103860;28;20576;-87
2022/07/07 02:36:10;;;;;;;8.85;2.38;;;;;;;12.65;100.00;101963.56;5096924;28;20412;-87
2022/07/07 02:38:37;;;;;;;11.00;2.30;;;;;;;12.96;100.00;101975.00;5096854;28;20047;-87
2022/07/07 02:41:05;;;;;;;13.10;3.10;;;;;;;12.61;100.00;101955.84;5102201;28;20056;-87
2022/07/07 02:43:33;;;;;;;12.15;2.50;;;;;;;12.47;100.00;101941.28;5094698;28;20050;-87
2022/07/07 02:46:00;;;;;;;13.85;2.67;;;;;;;12.51;100.00;101953.44;5096577;28;20700;-88
2022/07/07 02:48:28;;;;;;;11.40;2.72;;;;;;;12.52;100.00;101946.44;5114568;28;20074;-87
2022/07/07 02:50:55;;;;;;;9.60;2.47;;;;;;;12.70;100.00;101976.59;5096979;28;20094;-88
2022/07/07 02:53:22;;;;;;;13.00;2.63;;;;;;;12.69;100.00;101975.72;5095574;28;20058;-88
2022/07/07 02:55:49;;;;;;;12.02;2.72;;;;;;;12.62;100.00;101968.06;5097165;28;20374;-87
2022/07/07 02:58:19;;;;;;;17.50;2.90;;;;;;;12.78;100.00;102006.16;5096901;28;20046;-87
2022/07/07 03:00:47;;;;;;;10.25;2.88;;;;;;;12.84;100.00;101987.59;5112561;28;20499;-87
2022/07/07 03:03:15;;;;;;;13.15;2.97;;;;;;;12.64;100.00;101987.25;5089797;28;20048;-87
2022/07/07 03:05:42;;;;;;;10.75;2.47;;;;;;;12.90;100.00;102007.59;5114461;28;20401;-87
2022/07/07 03:08:09;;;;;;;8.35;1.88;;;;;;;13.08;100.00;101996.59;5096832;28;20138;-87
2022/07/07 03:10:37;;;;;;;13.93;2.50;;;;;;;12.94;100.00;102003.97;5096183;28;20047;-87
2022/07/07 03:13:03;;;;;;;10.20;2.60;;;;;;;12.91;100.00;102017.22;5085000;28;20131;-87
2022/07/07 03:15:30;;;;;;;11.02;2.95;;;;;;;12.37;100.00;101983.59;5092673;28;20382;-87
2022/07/07 03:17:57;;;;;;;9.20;2.33;;;;;;;12.28;100.00;101967.16;5096071;28;20170;-87
2022/07/07 03:20:24;;;;;;;17.30;3.03;;;;;;;12.34;100.00;102009.03;5128690;27;20055;-87
2022/07/07 03:22:51;;;;;;;14.93;2.63;;;;;;;12.35;100.00;101968.72;5095758;28;20096;-87
2022/07/07 03:25:18;;;;;;;10.18;2.67;;;;;;;12.66;100.00;101990.69;5111495;28;20075;-87
2022/07/07 03:27:45;;;;;;;13.75;2.97;;;;;;;12.79;100.00;101997.38;5080393;28;20079;-88
2022/07/07 03:30:12;;;;;;;13.77;2.85;;;;;;;12.66;100.00;101986.34;5096308;28;20051;-87
2022/07/07 03:32:39;;;;;;;17.73;2.45;;;;;;;12.50;100.00;101963.97;5089646;28;20051;-88
2022/07/07 03:35:08;;;;;;;11.40;2.63;;;;;;;12.48;100.00;101992.94;5082221;28;20093;-88
2022/07/07 03:37:36;;;;;;;13.95;2.25;;;;;;;12.70;100.00;102023.91;5106116;28;20097;-87
2022/07/07 03:40:05;;;;;;;9.00;2.45;;;;;;;12.71;100.00;102036.13;5112820;28;20075;-87
2022/07/07 03:42:32;;;;;;;15.80;2.70;;;;;;;12.31;100.00;102022.22;5085428;28;20047;-88
2022/07/07 03:44:59;;;;;;;15.48;3.22;;;;;;;12.35;100.00;102016.00;5092246;28;20134;-87
2022/07/07 03:47:26;;;;;;;14.43;2.53;;;;;;;12.38;100.00;101999.31;5113332;28;20089;-87
2022/07/07 03:49:52;;;;;;;12.18;2.33;;;;;;;12.61;100.00;102026.78;5095379;28;20127;-87
2022/07/07 03:52:19;;;;;;;14.20;2.20;;;;;;;12.47;100.00;102027.13;5094993;28;20090;-87
2022/07/07 03:54:46;;;;;;;10.52;2.65;;;;;;;12.45;100.00;102029.78;5096053;28;20077;-87
2022/07/07 03:57:13;;;;;;;10.68;2.47;;;;;;;12.54;100.00;102047.94;5113979;28;20104;-88
2022/07/07 03:59:57;;;;;;;10.10;2.33;;;;;;;12.43;100.00;102070.09;5113695;28;20066;-87
2022/07/07 04:02:24;;;;;;;10.82;2.25;;;;;;;12.33;100.00;102035.31;5098846;27;20043;-87
2022/07/07 04:04:51;;;;;;;19.17;2.40;;;;;;;12.30;100.00;102056.41;5120710;27;20538;-87
2022/07/07 04:07:18;;;;;;;11.98;2.33;;;;;;;12.31;100.00;102038.00;5094962;28;20122;-87
2022/07/07 04:09:45;;;;;;;15.68;2.78;;;;;;;12.39;100.00;102027.28;5094714;28;20093;-87
2022/07/07 04:12:12;;;;;;;8.45;2.38;;;;;;;12.44;100.00;102070.06;5108331;28;20085;-88
2022/07/07 04:14:38;;;;;;;9.15;2.45;;;;;;;12.21;100.00;102031.22;5095348;28;20125;-87
2022/07/07 04:17:05;;;;;;;12.50;2.85;;;;;;;12.58;100.00;102088.13;5095317;28;20051;-87
2022/07/07 04:19:33;;;;;;;16.92;3.88;;;;;;;12.19;100.00;102053.19;5112993;28;20388;-87
2022/07/07 04:21:59;;;;;;;8.80;1.90;;;;;;;12.63;100.00;102082.78;5094317;28;20105;-87
2022/07/07 04:24:27;;;;;;;10.93;3.08;;;;;;;12.77;100.00;102079.81;5080639;28;20039;-87
2022/07/07 04:26:53;;;;;;;10.23;1.83;;;;;;;12.79;100.00;102076.22;5095107;28;20051;-87
2022/07/07 04:29:21;;;;;;;8.60;2.25;;;;;;;12.91;100.00;102086.41;5094593;28;20043;-87
2022/07/07 04:31:53;;;;;;;13.43;2.00;;;;;;;12.82;100.00;102099.81;5090260;28;20040;-87
2022/07/07 04:34:22;;;;;;;12.40;2.58;;;;;;;12.62;100.00;102073.16;5109717;28;20301;-87
2022/07/07 04:36:49;;;;;;;14.35;2.25;;;;;;;12.98;100.00;102104.66;5095388;28;20047;-87
2022/07/07 04:39:17;;;;;;;10.60;2.22;;;;;;;12.69;100.00;102069.47;5094838;28;20684;-87
2022/07/07 04:41:44;;;;;;;14.05;2.60;;;;;;;12.73;100.00;102110.56;5094997;28;20134;-87
2022/07/07 04:44:11;;;;;;;11.63;2.38;;;;;;;12.76;100.00;102080.69;5085235;28;20497;-87
2022/07/07 04:46:37;;;;;;;24.23;3.65;;;;;;;12.43;100.00;102062.22;5094707;28;20075;-84
2022/07/07 04:49:04;;;;;;;12.30;2.80;;;;;;;12.58;100.00;102077.63;5093776;28;20051;-87
2022/07/07 04:51:31;;;;;;;10.75;2.35;;;;;;;12.56;100.00;102074.16;5111497;28;20524;-87
2022/07/07 04:53:58;;;;;;;9.77;2.65;;;;;;;12.83;100.00;102096.25;5094815;28;20130;-87
2022/07/07 04:56:25;;;;;;;10.43;2.58;;;;;;;12.97;100.00;102116.09;5094616;28;20047;-88
2022/07/07 04:58:52;;;;;;;12.52;2.53;;;;;;;12.95;100.00;102081.09;5094189;28;20052;-88
2022/07/07 05:01:19;;;;;;;14.80;3.05;;;;;;;12.91;100.00;102104.81;5094217;28;20135;-88
2022/07/07 05:03:45;;;;;;;14.18;1.92;;;;;;;12.49;100.00;102064.72;5106961;28;20397;-88
2022/07/07 05:06:13;;;;;;;15.20;2.35;;;;;;;12.59;100.00;102084.63;5094890;28;20078;-88
2022/07/07 05:08:40;;;;;;;13.10;3.22;;;;;;;12.88;100.00;102088.25;5094642;28;20101;-88
2022/07/07 05:11:07;;;;;;;14.32;2.70;;;;;;;12.68;100.00;102123.78;5083514;28;20058;-88
2022/07/07 05:13:34;;;;;;;18.25;2.20;;;;;;;12.78;100.00;102123.56;5093664;28;20071;-87
2022/07/07 05:16:02;;;;;;;13.57;3.13;;;;;;;12.75;100.00;102084.22;5094854;28;20051;-87
2022/07/07 05:18:30;;;;;;;12.43;2.78;;;;;;;13.23;100.00;102112.78;5094570;28;20063;-87
2022/07/07 05:20:57;;;;;;;12.98;2.40;;;;;;;13.37;100.00;102118.56;5093674;28;20470;-87
2022/07/07 05:23:28;;;;;;;13.65;3.05;;;;;;;13.13;100.00;102109.53;5093985;28;20405;-87
2022/07/07 05:25:55;;;;;;;11.75;2.10;;;;;;;13.22;100.00;102122.41;5093750;28;20047;-86
2022/07/07 05:28:22;;;;;;;15.50;2.17;;;;;;;13.01;100.00;102112.47;5090446;28;20052;-88
2022/07/07 05:30:49;;;;;;;7.43;2.40;;;;;;;13.25;100.00;102132.88;5093691;28;20085;-88
2022/07/07 05:33:16;;;;;;;13.50;2.60;;;;;;;13.03;100.00;102152.72;5095068;28;20047;-88
2022/07/07 05:35:43;;;;;;;12.90;2.55;;;;;;;13.26;100.00;102145.13;5093873;28;20405;-88
2022/07/07 05:38:11;;;;;;;10.95;2.35;;;;;;;13.07;100.00;102117.59;5114741;28;20051;-87
2022/07/07 05:40:38;;;;;;;10.48;2.42;;;;;;;13.02;100.00;102140.50;5097257;28;20127;-87
2022/07/07 05:43:05;;;;;;;13.77;2.70;;;;;;;12.80;100.00;102096.34;5090620;28;20126;-88
2022/07/07 05:45:32;;;;;;;10.35;2.20;;;;;;;13.36;100.00;102158.06;5102922;28;20044;-86
2022/07/07 05:47:58;;;;;;;11.38;1.95;;;;;;;13.42;100.00;102158.75;5090657;28;20055;-87
2022/07/07 05:50:33;;;;;;;9.85;2.33;;;;;;;13.41;100.00;102154.41;5095054;28;20397;-87
2022/07/07 05:53:01;;;;;;;14.25;2.13;;;;;;;12.93;100.00;102128.44;5107557;28;20052;-86
2022/07/07 05:55:27;;;;;;;14.60;3.42;;;;;;;12.90;100.00;102115.38;5085616;28;20075;-88
2022/07/07 05:57:54;;;;;;;8.02;1.77;;;;;;;12.94;100.00;102106.50;5086338;28;20134;-87
2022/07/07 06:00:22;;;;;;;12.75;3.28;;;;;;;12.99;100.00;102095.88;5098438;28;20061;-87
2022/07/07 06:02:51;;;;;;;9.48;2.38;;;;;;;12.96;100.00;102157.28;5107613;28;20384;-87
2022/07/07 06:05:18;;;;;;;11.55;2.53;;;;;;;13.21;100.00;102165.41;5111682;28;20043;-86
2022/07/07 06:07:45;;;;;;;9.70;2.58;;;;;;;13.32;100.00;102178.31;5105745;28;20040;-86
2022/07/07 06:10:14;;;;;;;7.43;1.55;;;;;;;13.63;100.00;102174.84;5128839;27;20078;-83
2022/07/07 06:12:42;;;;;;;11.32;1.92;;;;;;;13.78;100.00;102178.84;5111358;28;20047;-86
2022/07/07 06:15:10;;;;;;;8.85;1.90;;;;;;;13.64;100.00;102177.44;5102560;28;20090;-86
2022/07/07 06:17:38;;;;;;;12.73;2.58;;;;;;;13.97;100.00;102211.66;5097899;28;20040;-85
2022/07/07 06:20:25;;;;;;;7.43;1.60;;;;;;;14.08;100.00;102169.22;5129387;28;20143;-86
2022/07/07 06:22:52;;;;;;;11.68;1.80;;;;;;;13.93;100.00;102159.13;5102877;28;20043;-87
2022/07/07 06:25:21;;;;;;;9.02;1.80;;;;;;;13.79;100.00;102163.03;5102932;28;20053;-85
2022/07/07 06:27:54;;;;;;;7.57;2.17;;;;;;;13.52;100.00;102183.03;5110636;28;20055;-86
2022/07/07 06:30:21;;;;;;;14.23;2.42;;;;;;;13.65;100.00;102168.66;5101274;28;20064;-86
2022/07/07 06:33:02;;;;;;;12.55;2.35;;;;;;;13.64;100.00;102195.03;5097657;28;20047;-86
2022/07/07 06:35:38;;;;;;;11.43;2.53;;;;;;;13.51;100.00;102165.56;5107846;28;20046;-86
2022/07/07 06:38:05;;;;;;;11.02;2.03;;;;;;;13.57;100.00;102194.31;5094281;28;20051;-86
2022/07/07 06:40:46;;;;;;;10.80;2.20;;;;;;;13.52;100.00;102195.34;5130513;27;20603;-86
2022/07/07 06:43:16;;;;;;;9.35;2.05;;;;;;;13.85;100.00;102209.38;5116450;27;20053;-85
2022/07/07 06:45:50;;;;;;;9.13;2.08;;;;;;;13.77;100.00;102220.09;5110118;27;20059;-86
2022/07/07 06:48:31;;;;;;;11.60;2.38;;;;;;;13.77;100.00;102203.44;5115960;27;20043;-86
2022/07/07 06:51:11;;;;;;;7.85;2.00;;;;;;;13.82;100.00;102193.66;5109319;28;20055;-86
2022/07/07 06:53:39;;;;;;;10.73;2.25;;;;;;;13.63;100.00;102173.13;5106846;28;20058;-84
2022/07/07 06:56:19;;;;;;;10.18;2.20;;;;;;;13.90;100.00;102210.09;5093655;28;20087;-86
2022/07/07 06:59:00;;;;;;;10.15;2.72;;;;;;;13.78;100.00;102187.59;5113872;27;20103;-85
2022/07/07 07:01:41;;;;;;;13.38;1.88;;;;;;;13.93;100.00;102193.34;5126662;27;20039;-86
2022/07/07 07:04:22;;;;;;;12.20;2.08;;;;;;;14.20;100.00;102202.19;5084263;28;20086;-86
2022/07/07 07:07:02;;;;;;;9.02;2.40;;;;;;;14.48;100.00;102225.09;5118025;28;20078;-86
2022/07/07 07:09:43;;;;;;;6.28;1.73;;;;;;;14.07;100.00;102182.41;5096098;28;20042;-86
2022/07/07 07:12:24;;;;;;;7.80;1.90;;;;;;;14.04;100.00;102196.50;5110331;28;20055;-86
2022/07/07 07:15:06;;;;;;;10.15;1.95;;;;;;;14.70;100.00;102252.56;5115446;28;20051;-86
2022/07/07 07:17:46;;;;;;;10.30;2.17;;;;;;;14.40;100.00;102259.59;5108291;28;20044;-86
2022/07/07 07:20:23;;;;;;;10.75;2.03;;;;;;;14.35;100.00;102216.72;5100977;28;20056;-86
2022/07/07 07:23:04;;;;;;;14.90;2.33;;;;;;;14.44;100.00;102254.19;5124656;28;20051;-86
2022/07/07 07:25:44;;;;;;;8.10;1.80;;;;;;;14.73;100.00;102241.94;5108956;28;20142;-87
2022/07/07 07:28:25;;;;;;;7.47;1.60;;;;;;;14.71;100.00;102187.50;5113869;28;20054;-87
2022/07/07 07:30:53;;;;;;;5.15;1.50;;;;;;;14.99;100.00;102201.53;5121435;28;20530;-86
2022/07/07 07:33:35;;;;;;;8.45;1.70;;;;;;;15.02;100.00;102237.50;5113083;28;20051;-86
2022/07/07 07:36:08;;;;;;;8.75;1.65;;;;;;;15.11;100.00;102220.53;5129460;27;20067;-86
2022/07/07 07:38:44;;;;;;;7.75;1.77;;;;;;;15.23;100.00;102208.69;5122903;28;20051;-85
2022/07/07 07:41:19;;;;;;;5.10;1.20;;;;;;;14.98;100.00;102198.97;5118927;28;20150;-86
2022/07/07 07:43:48;;;;;;;7.90;1.50;;;;;;;15.25;100.00;102220.91;5111331;28;20051;-86
2022/07/07 07:46:25;;;;;;;8.70;1.75;;;;;;;15.41;100.00;102205.44;5107525;27;20047;-85
2022/07/07 07:48:54;;;;;;;4.20;1.35;;;;;;;15.59;100.00;102256.72;5110521;28;20091;-85
2022/07/07 07:51:34;;;;;;;5.80;1.55;;;;;;;15.53;100.00;102243.75;5139410;27;20027;-87
2022/07/07 07:54:01;;;;;;;5.43;1.10;;;;;;;15.83;100.00;102259.44;5123562;27;20077;-86
2022/07/07 07:56:43;;;;;;;6.25;1.50;;;;;;;15.05;100.00;102117.84;5126424;27;20069;-84
2022/07/07 07:59:15;;;;;;;6.85;2.13;;;;;;;15.88;100.00;102239.00;5117902;28;20055;-85
2022/07/07 08:01:56;;;;;;;8.05;1.92;;;;;;;15.86;100.00;102212.66;5110429;27;20058;-85
2022/07/07 08:04:22;;;;;;;5.13;1.30;;;;;;;16.07;100.00;102268.28;5114398;27;20101;-85
2022/07/07 08:06:52;;;;;;;6.78;1.70;;;;;;;16.28;100.00;102266.63;5136379;27;20057;-85
2022/07/07 08:09:19;;;;;;;6.35;1.40;;;;;;;16.46;100.00;102265.06;5114613;27;20104;-86
2022/07/07 08:11:47;;;;;;;4.85;1.48;;;;;;;16.30;100.00;102275.34;5110003;28;20066;-85
2022/07/07 08:14:28;;;;;;;2.20;1.02;;;;;;;16.14;100.00;102219.56;5110323;28;20055;-85
2022/07/07 08:17:09;;;;;;;3.15;1.23;;;;;;;16.20;100.00;102219.34;5122385;27;20058;-85
2022/07/07 08:19:38;;;;;;;8.60;1.52;;;;;;;16.13;100.00;102231.94;5105546;28;20044;-85
2022/07/07 08:22:05;;;;;;;9.48;1.60;;;;;;;17.02;100.00;102261.16;5125243;28;20075;-85
2022/07/07 08:24:33;;;;;;;6.57;1.30;;;;;;;18.29;100.00;102288.41;5109504;28;20075;-85
2022/07/07 08:27:00;;;;;;;6.63;1.38;;;;;;;17.54;100.00;102248.38;5111383;28;20043;-85
2022/07/07 08:29:27;;;;;;;5.93;1.52;;;;;;;18.10;100.00;102265.41;5140089;27;20062;-85
2022/07/07 08:31:55;;;;;;;5.25;1.10;;;;;;;18.83;100.00;102264.72;5122234;28;20133;-84
2022/07/07 08:34:23;;;;;;;2.97;1.05;;;;;;;18.24;100.00;102285.09;5129953;28;20082;-84
2022/07/07 08:36:52;;;;;;;11.38;1.33;;;;;;;18.25;100.00;102255.88;5131340;28;20044;-86
2022/07/07 08:39:18;;;;;;;7.05;1.25;;;;;;;18.77;100.00;102241.97;5100538;28;20052;-85
2022/07/07 08:41:46;;;;;;;5.88;1.30;;;;;;;18.92;100.00;102264.28;5128449;28;20075;-85
2022/07/07 08:44:14;;;;;;;3.72;0.90;;;;;;;19.00;100.00;102280.69;5129717;28;20078;-85
2022/07/07 08:46:41;;;;;;;4.15;1.10;;;;;;;19.71;100.00;102275.34;5100094;28;20053;-84
2022/07/07 08:49:11;;;;;;;4.88;1.33;;;;;;;19.03;100.00;102280.53;5127324;28;20073;-84
2022/07/07 08:51:41;;;;;;;4.10;1.13;;;;;;;19.04;100.00;102261.03;5128949;28;20497;-85
2022/07/07 08:54:13;;;;;;;4.13;1.13;;;;;;;19.59;100.00;102293.72;5114407;28;20104;-86
2022/07/07 08:56:41;;;;;;;3.10;1.00;;;;;;;19.89;100.00;102265.59;5107110;28;20051;-86
2022/07/07 08:59:10;;;;;;;4.60;1.23;;;;;;;19.97;100.00;102249.22;5132749;28;20115;-84
2022/07/07 09:01:37;;;;;;;4.65;1.10;;;;;;;19.76;100.00;102264.53;5110100;28;20413;-83
2022/07/07 09:04:05;;;;;;;5.30;1.10;;;;;;;20.16;97.83;102288.13;5094529;28;20445;-87
2022/07/07 09:06:33;;;;;;;4.43;1.10;;;;;;;20.02;100.00;102244.53;5106835;28;20040;-86
2022/07/07 09:09:01;;;;;;;3.38;0.98;;;;;;;19.99;100.00;102254.47;5109248;28;20150;-86
2022/07/07 09:11:30;;;;;;;4.72;1.13;;;;;;;19.62;100.00;102237.75;5117779;28;20248;-86
2022/07/07 09:14:12;;;;;;;4.40;1.00;;;;;;;19.99;100.00;102284.59;5128298;28;20044;-85
2022/07/07 09:16:39;;;;;;;1.95;0.90;;;;;;;20.02;100.00;102275.56;5110504;28;20048;-86
2022/07/07 09:19:27;;;;;;;4.93;1.35;;;;;;;19.72;100.00;102284.19;5119281;27;20059;-86
2022/07/07 09:21:54;;;;;;;2.53;0.82;;;;;;;20.23;100.00;102271.75;5131247;27;20119;-84
2022/07/07 09:24:20;;;;;;;2.70;0.90;;;;;;;20.66;99.35;102266.78;5110417;28;20075;-87
2022/07/07 09:26:54;;;;;;;3.47;0.98;;;;;;;21.02;99.39;102288.75;5108093;27;20107;-88
2022/07/07 09:29:23;;;;;;;5.75;1.40;;;;;;;20.52;98.60;102279.09;5119522;28;20080;-86
2022/07/07 09:32:05;;;;;;;3.35;1.00;;;;;;;20.38;96.02;102282.50;5111549;27;20077;-87
2022/07/07 09:34:35;;;;;;;5.38;1.20;;;;;;;21.09;97.32;102283.91;5103081;27;20137;-86
2022/07/07 09:39:56;;;;;;;3.03;1.00;;;;;;;20.98;93.13;102247.25;5121044;27;20150;-87
2022/07/07 09:42:38;;;;;;;4.13;1.15;;;;;;;20.77;89.00;102210.28;5111614;27;20434;-86
2022/07/07 09:45:08;;;;;;;3.08;0.88;;;;;;;21.70;87.22;102272.31;5105909;28;20087;-87
2022/07/07 09:47:36;;;;;;;3.15;0.95;;;;;;;21.39;89.60;102275.94;5110673;28;20035;-86
2022/07/07 09:50:14;;;;;;;2.58;0.90;;;;;;;21.88;85.59;102233.00;5108058;28;20051;-87
2022/07/07 09:52:47;;;;;;;2.83;0.85;;;;;;;21.78;84.69;102259.41;5110501;27;20044;-86
2022/07/07 09:55:14;;;;;;;;;;;;;;;22.24;84.65;102284.16;5101056;28;20040;-87
2022/07/07 09:57:44;;;;;;;3.03;0.75;;;;;;;22.00;79.64;102237.59;5110972;27;19930;-85
2022/07/07 10:00:12;;;;;;;2.65;0.80;;;;;;;21.86;84.32;102234.06;5139544;27;20051;-85
2022/07/07 10:02:39;;;;;;;2.58;0.93;;;;;;;21.80;80.21;102249.50;5132183;27;20062;-85
2022/07/07 10:05:07;;;;;;;2.95;0.90;;;;;;;22.75;83.10;102289.81;5129905;27;20048;-85
2022/07/07 10:07:35;;;;;;;3.35;1.05;;;;;;;21.93;81.73;102297.59;5101214;28;20039;-86
2022/07/07 10:10:05;;;;;;;7.32;1.30;;;;;;;20.43;89.64;102261.81;5128712;27;20047;-86
2022/07/07 10:12:33;;;;;;;7.65;1.50;;;;;;;20.23;100.00;102303.66;5133165;27;20055;-85
2022/07/07 10:15:12;;;;;;;6.95;1.48;;;;;;;19.53;100.00;102277.16;5122936;27;20107;-87
2022/07/07 10:17:41;;;;;;;6.88;1.45;;;;;;;19.62;100.00;102259.91;5133367;27;20062;-86
2022/07/07 10:20:11;;;;;;;8.00;1.70;;;;;;;19.77;100.00;102276.84;5107364;28;20073;-86
2022/07/07 10:22:38;;;;;;;12.00;1.73;;;;;;;19.33;100.00;102290.56;5115813;27;20053;-86
2022/07/07 10:25:07;;;;;;;11.85;1.85;;;;;;;19.07;100.00;102275.94;5113327;28;20123;-86
2022/07/07 10:27:35;;;;;;;7.97;1.80;;;;;;;18.56;100.00;102259.78;5103626;27;20062;-86
2022/07/07 10:30:04;;;;;;;7.45;1.67;;;;;;;18.76;100.00;102283.56;5117881;28;20051;-86
2022/07/07 10:32:31;;;;;;;12.68;1.95;;;;;;;18.49;100.00;102298.13;5098816;28;20502;-86
2022/07/07 10:35:05;;;;;;;9.40;1.95;;;;;;;17.99;100.00;102265.88;5120930;28;20584;-85
2022/07/07 10:37:42;;;;;;;8.77;1.95;;;;;;;18.58;100.00;102295.03;5104972;28;20107;-86
2022/07/07 10:40:28;;;;;;;7.60;1.67;;;;;;;19.60;100.00;102301.63;5095405;28;20067;-87
2022/07/07 10:43:17;;;;;;;6.88;1.73;;;;;;;19.50;100.00;102301.22;5100367;27;20075;-87
2022/07/07 10:45:51;;;;;;;7.43;1.67;;;;;;;18.56;100.00;102212.03;5116699;28;20119;-86
2022/07/07 10:48:42;;;;;;;8.20;1.92;;;;;;;19.74;100.00;102295.59;5108967;27;20057;-86
2022/07/07 10:51:27;;;;;;;8.07;1.77;;;;;;;19.30;100.00;102299.56;5102384;28;20043;-87
2022/07/07 10:54:06;;;;;;;7.10;1.83;;;;;;;19.10;100.00;102299.69;5100217;28;20052;-85
2022/07/07 10:56:51;;;;;;;6.95;1.52;;;;;;;20.25;100.00;102301.78;5091335;28;20044;-87
2022/07/07 10:59:22;;;;;;;4.93;1.30;;;;;;;20.64;100.00;102299.72;5125133;27;20087;-85
2022/07/07 11:02:02;;;;;;;5.40;1.60;;;;;;;19.48;100.00;102286.31;5108081;27;20112;-86
2022/07/07 11:04:41;;;;;;;6.35;1.52;;;;;;;20.00;100.00;102314.69;5107585;28;20477;-86
2022/07/07 11:07:16;;;;;;;4.55;1.38;;;;;;;20.13;100.00;102245.75;5129335;27;20039;-86
2022/07/07 11:10:11;;;;;;;10.05;1.90;;;;;;;20.40;100.00;102304.59;5105684;28;20071;-86
2022/07/07 11:12:53;;;;;;;7.32;1.67;;;;;;;20.93;100.00;102295.44;5104158;28;20044;-87
2022/07/07 11:15:32;;;;;;;7.20;1.40;;;;;;;20.98;100.00;102298.72;5122357;28;20126;-88
2022/07/07 11:18:12;;;;;;;7.00;1.60;;;;;;;20.23;100.00;102281.53;5139621;27;20131;-87
2022/07/07 11:21:00;;;;;;;10.15;1.73;;;;;;;19.68;100.00;102288.78;5104972;28;20027;-87
2022/07/07 11:23:50;;;;;;;13.65;1.95;;;;;;;19.92;100.00;102301.78;5109058;28;20074;-87
2022/07/07 11:26:25;;;;;;;8.88;1.67;;;;;;;19.90;100.00;102242.50;5123549;28;20051;-87
2022/07/07 11:28:56;;;;;;;6.63;1.52;;;;;;;19.94;100.00;102264.47;5100755;28;20055;-86
2022/07/07 11:31:27;;;;;;;;;;;;;;;20.12;100.00;102305.19;5107785;28;20119;-86